createdAt,value
2022-08-28T00:00:38.138Z,20.45
2022-08-28T00:03:05.746Z,20.32
2022-08-28T00:05:34.106Z,20.39
2022-08-28T00:08:01.206Z,20.29
2022-08-28T00:10:28.709Z,20.42
2022-08-28T00:12:58.143Z,20.34
2022-08-28T00:15:38.026Z,20.42
2022-08-28T00:18:05.907Z,20.32
2022-08-28T00:20:34.021Z,20.35
2022-08-28T00:23:00.534Z,20.39
2022-08-28T00:25:29.614Z,20.36
2022-08-28T00:27:59.098Z,20.34
2022-08-28T00:30:32.232Z,20.46
2022-08-28T00:33:02.350Z,20.20
2022-08-28T00:35:29.615Z,20.29
2022-08-28T00:37:57.983Z,20.24
2022-08-28T00:40:30.686Z,20.26
2022-08-28T00:43:02.225Z,20.35
2022-08-28T00:45:30.702Z,20.24
2022-08-28T00:47:57.408Z,20.31
2022-08-28T00:50:51.271Z,20.14
2022-08-28T00:53:18.628Z,20.10
2022-08-28T00:55:45.180Z,20.13
2022-08-28T00:58:12.567Z,20.08
2022-08-28T01:00:40.378Z,20.07
2022-08-28T01:03:07.920Z,19.98
2022-08-28T01:05:36.407Z,20.05
2022-08-28T01:08:08.479Z,20.13
2022-08-28T01:10:35.703Z,20.21
2022-08-28T01:13:03.251Z,20.03
2022-08-28T01:15:33.613Z,19.98
2022-08-28T01:18:08.075Z,20.04
2022-08-28T01:20:45.973Z,20.15
2022-08-28T01:23:53.128Z,20.05
2022-08-28T01:26:20.632Z,19.91
2022-08-28T01:28:48.565Z,19.83
2022-08-28T01:31:17.511Z,19.77
2022-08-28T01:33:45.828Z,19.83
2022-08-28T01:36:14.751Z,20.03
2022-08-28T01:38:45.239Z,19.93
2022-08-28T01:41:13.865Z,19.87
2022-08-28T01:43:41.574Z,19.78
2022-08-28T01:46:09.809Z,19.81
2022-08-28T01:48:40.372Z,19.76
2022-08-28T01:51:07.066Z,19.78
2022-08-28T01:53:33.838Z,19.71
2022-08-28T01:56:04.506Z,19.78
2022-08-28T01:58:36.021Z,19.81
2022-08-28T02:01:08.452Z,19.85
2022-08-28T02:03:34.885Z,19.91
2022-08-28T02:06:01.306Z,19.87
2022-08-28T02:08:27.761Z,19.76
2022-08-28T02:10:54.160Z,19.78
2022-08-28T02:13:20.938Z,19.67
2022-08-28T02:15:52.066Z,19.63
2022-08-28T02:18:18.702Z,19.60
2022-08-28T02:20:45.137Z,19.62
2022-08-28T02:23:11.593Z,19.62
2022-08-28T02:25:38.594Z,19.74
2022-08-28T02:28:05.373Z,19.66
2022-08-28T02:30:32.756Z,19.62
2022-08-28T02:32:59.275Z,19.57
2022-08-28T02:35:25.754Z,19.46
2022-08-28T02:37:52.302Z,19.52
2022-08-28T02:40:24.131Z,19.67
2022-08-28T02:42:52.029Z,19.55
2022-08-28T02:45:20.174Z,19.45
2022-08-28T02:47:47.847Z,19.43
2022-08-28T02:50:17.328Z,19.52
2022-08-28T02:52:44.420Z,19.22
2022-08-28T02:55:12.993Z,19.19
2022-08-28T02:57:39.988Z,19.22
2022-08-28T03:00:09.988Z,19.11
2022-08-28T03:02:36.771Z,19.12
2022-08-28T03:05:04.085Z,19.28
2022-08-28T03:07:30.573Z,19.36
2022-08-28T03:09:57.174Z,19.22
2022-08-28T03:12:27.175Z,19.29
2022-08-28T03:14:54.477Z,19.29
2022-08-28T03:17:22.133Z,19.36
2022-08-28T03:19:50.118Z,19.31
2022-08-28T03:22:43.523Z,19.29
2022-08-28T03:25:11.836Z,19.26
2022-08-28T03:27:38.970Z,19.25
2022-08-28T03:30:07.850Z,19.12
2022-08-28T03:32:35.082Z,19.09
2022-08-28T03:35:01.914Z,19.11
2022-08-28T03:37:28.537Z,18.95
2022-08-28T03:39:55.210Z,19.01
2022-08-28T03:42:22.987Z,19.02
2022-08-28T03:44:49.447Z,19.05
2022-08-28T03:47:16.878Z,19.23
2022-08-28T03:49:45.258Z,18.99
2022-08-28T03:52:12.563Z,18.89
2022-08-28T03:54:39.158Z,18.75
2022-08-28T03:57:06.977Z,18.75
2022-08-28T03:59:33.649Z,18.73
2022-08-28T04:02:00.470Z,18.75
2022-08-28T04:04:26.952Z,18.67
2022-08-28T04:06:53.442Z,18.56
2022-08-28T04:09:19.874Z,18.48
2022-08-28T04:11:46.278Z,18.56
2022-08-28T04:14:12.748Z,18.47
2022-08-28T04:16:39.261Z,18.37
2022-08-28T04:19:05.898Z,18.25
2022-08-28T04:21:32.382Z,18.13
2022-08-28T04:23:58.819Z,18.15
2022-08-28T04:26:27.388Z,17.92
2022-08-28T04:28:55.239Z,17.88
2022-08-28T04:31:31.805Z,17.85
2022-08-28T04:34:01.619Z,17.83
2022-08-28T04:36:28.947Z,17.78
2022-08-28T04:38:57.482Z,17.86
2022-08-28T04:41:23.934Z,17.85
2022-08-28T04:43:52.844Z,17.92
2022-08-28T04:46:19.559Z,18.08
2022-08-28T04:48:46.047Z,17.88
2022-08-28T04:51:15.023Z,17.98
2022-08-28T04:53:42.496Z,17.85
2022-08-28T04:56:11.642Z,17.85
2022-08-28T04:58:39.430Z,17.89
2022-08-28T05:01:20.945Z,17.92
2022-08-28T05:03:52.124Z,17.92
2022-08-28T05:06:18.631Z,17.92
2022-08-28T05:08:45.052Z,17.86
2022-08-28T05:11:12.862Z,17.78
2022-08-28T05:13:39.592Z,17.74
2022-08-28T05:16:06.704Z,17.77
2022-08-28T05:18:33.543Z,17.74
2022-08-28T05:21:02.114Z,17.68
2022-08-28T05:23:29.468Z,17.62
2022-08-28T05:25:56.256Z,17.61
2022-08-28T05:28:24.526Z,17.62
2022-08-28T05:30:51.975Z,17.65
2022-08-28T05:33:19.906Z,17.62
2022-08-28T05:35:47.230Z,17.67
2022-08-28T05:38:15.576Z,17.69
2022-08-28T05:40:45.052Z,17.72
2022-08-28T05:43:13.644Z,17.68
2022-08-28T05:45:40.378Z,17.67
2022-08-28T05:48:08.546Z,17.65
2022-08-28T05:50:38.749Z,17.83
2022-08-28T05:53:05.800Z,17.59
2022-08-28T05:55:32.423Z,17.58
2022-08-28T05:58:18.834Z,17.82
2022-08-28T06:00:45.440Z,17.81
2022-08-28T06:03:11.982Z,17.79
2022-08-28T06:05:38.484Z,17.95
2022-08-28T06:08:04.984Z,18.16
2022-08-28T06:10:31.450Z,18.15
2022-08-28T06:12:58.762Z,18.23
2022-08-28T06:15:26.901Z,18.41
2022-08-28T06:17:53.681Z,18.46
2022-08-28T06:20:20.881Z,18.41
2022-08-28T06:22:50.746Z,18.51
2022-08-28T06:25:17.360Z,18.75
2022-08-28T06:27:43.833Z,18.57
2022-08-28T06:32:35.947Z,18.88
2022-08-28T06:35:02.379Z,19.01
2022-08-28T06:37:29.416Z,19.04
2022-08-28T06:39:55.915Z,19.08
2022-08-28T06:42:22.894Z,19.09
2022-08-28T06:44:49.335Z,18.95
2022-08-28T06:47:16.009Z,18.91
2022-08-28T06:49:42.456Z,18.98
2022-08-28T06:52:08.993Z,19.08
2022-08-28T06:54:35.518Z,19.02
2022-08-28T06:57:01.984Z,19.20
2022-08-28T06:59:28.458Z,19.31
2022-08-28T07:01:55.657Z,19.36
2022-08-28T07:04:22.313Z,19.01
2022-08-28T07:06:54.066Z,19.01
2022-08-28T07:09:20.931Z,19.11
2022-08-28T07:11:47.413Z,19.18
2022-08-28T07:14:14.350Z,19.31
2022-08-28T07:16:42.304Z,19.31
2022-08-28T07:19:11.227Z,19.19
2022-08-28T07:21:41.687Z,19.49
2022-08-28T07:24:10.417Z,19.45
2022-08-28T07:26:38.025Z,19.38
2022-08-28T07:29:11.079Z,19.45
2022-08-28T07:31:44.241Z,19.41
2022-08-28T07:34:12.483Z,19.97
2022-08-28T07:36:40.090Z,19.85
2022-08-28T07:39:08.313Z,19.95
2022-08-28T07:41:38.927Z,20.08
2022-08-28T07:44:24.961Z,20.26
2022-08-28T07:46:56.872Z,20.28
2022-08-28T07:49:24.535Z,20.36
2022-08-28T07:51:54.151Z,20.52
2022-08-28T07:54:22.033Z,20.32
2022-08-28T07:56:48.671Z,20.39
2022-08-28T07:59:17.489Z,20.51
2022-08-28T08:01:48.203Z,20.73
2022-08-28T08:04:17.177Z,20.75
2022-08-28T08:06:44.633Z,20.71
2022-08-28T08:09:15.343Z,21.19
2022-08-28T08:11:42.735Z,21.11
2022-08-28T08:14:09.924Z,21.00
2022-08-28T08:16:40.742Z,20.59
2022-08-28T08:19:13.948Z,21.00
2022-08-28T08:21:45.471Z,21.11
2022-08-28T08:24:20.018Z,21.34
2022-08-28T08:26:59.229Z,21.27
2022-08-28T08:29:32.439Z,21.37
2022-08-28T08:32:06.413Z,21.47
2022-08-28T08:34:35.969Z,21.77
2022-08-28T08:37:02.452Z,21.67
2022-08-28T08:39:29.485Z,20.94
2022-08-28T08:42:00.652Z,20.77
2022-08-28T08:44:34.408Z,21.03
2022-08-28T08:47:16.779Z,21.42
2022-08-28T08:49:54.575Z,22.19
2022-08-28T08:52:36.502Z,24.20
2022-08-28T08:55:22.202Z,23.83
2022-08-28T08:57:55.733Z,23.90
2022-08-28T09:00:22.902Z,24.51
2022-08-28T09:03:13.322Z,24.17
2022-08-28T09:05:47.394Z,24.53
2022-08-28T09:08:25.510Z,24.34
2022-08-28T09:11:00.826Z,24.58
2022-08-28T09:13:48.093Z,25.92
2022-08-28T09:16:26.792Z,25.16
2022-08-28T09:18:56.391Z,24.35
2022-08-28T09:21:31.155Z,24.40
2022-08-28T09:24:05.569Z,24.31
2022-08-28T09:26:33.159Z,23.87
2022-08-28T09:29:23.869Z,23.65
2022-08-28T09:31:50.394Z,23.55
2022-08-28T09:34:33.402Z,24.71
2022-08-28T09:37:02.593Z,24.86
2022-08-28T09:39:32.231Z,24.95
2022-08-28T09:42:26.478Z,25.39
2022-08-28T09:45:09.566Z,25.20
2022-08-28T09:47:46.419Z,24.18
2022-08-28T09:50:38.604Z,23.83
2022-08-28T09:53:14.307Z,24.85
2022-08-28T09:55:59.669Z,24.93
2022-08-28T09:58:43.712Z,25.57
2022-08-28T10:01:41.286Z,26.65
2022-08-28T10:04:15.714Z,27.15
2022-08-28T10:06:49.027Z,25.68
2022-08-28T10:09:26.710Z,25.87
2022-08-28T10:12:05.383Z,25.64
2022-08-28T10:14:47.155Z,25.94
2022-08-28T10:17:29.095Z,27.86
2022-08-28T10:20:01.586Z,26.29
2022-08-28T10:22:52.398Z,24.81
2022-08-28T10:25:38.971Z,24.40
2022-08-28T10:28:40.352Z,25.34
2022-08-28T10:31:38.116Z,25.81
2022-08-28T10:34:26.540Z,26.09
2022-08-28T10:37:15.482Z,24.83
2022-08-28T10:39:55.469Z,25.46
2022-08-28T10:42:36.217Z,25.64
2022-08-28T10:45:16.934Z,26.72
2022-08-28T10:47:48.618Z,27.61
2022-08-28T10:50:23.630Z,27.45
2022-08-28T10:53:02.045Z,26.63
2022-08-28T10:55:37.762Z,27.11
2022-08-28T10:58:24.029Z,27.27
2022-08-28T11:00:55.659Z,26.70
2022-08-28T11:03:35.026Z,26.86
2022-08-28T11:06:11.588Z,26.28
2022-08-28T11:08:39.869Z,25.20
2022-08-28T11:11:13.192Z,25.47
2022-08-28T11:13:45.841Z,25.61
2022-08-28T11:16:37.011Z,26.50
2022-08-28T11:19:14.369Z,26.15
2022-08-28T11:21:48.455Z,26.42
2022-08-28T11:24:43.636Z,26.37
2022-08-28T11:27:22.144Z,26.32
2022-08-28T11:30:07.899Z,26.01
2022-08-28T11:32:34.390Z,25.12
2022-08-28T11:35:26.768Z,25.46
2022-08-28T11:37:55.407Z,24.72
2022-08-28T11:40:27.868Z,24.79
2022-08-28T11:43:14.175Z,25.33
2022-08-28T11:45:43.005Z,25.88
2022-08-28T11:48:26.423Z,25.89
2022-08-28T11:51:02.251Z,26.43
2022-08-28T11:53:53.427Z,25.89
2022-08-28T11:56:32.054Z,25.66
2022-08-28T11:59:20.382Z,26.52
2022-08-28T12:01:49.587Z,26.45
2022-08-28T12:04:22.090Z,26.63
2022-08-28T12:06:50.473Z,25.81
2022-08-28T12:09:26.083Z,25.77
2022-08-28T12:11:55.923Z,25.44
2022-08-28T12:14:25.305Z,25.94
2022-08-28T12:17:14.849Z,25.98
2022-08-28T12:19:55.235Z,25.88
2022-08-28T12:22:44.483Z,26.07
2022-08-28T12:25:35.780Z,26.79
2022-08-28T12:28:26.017Z,25.85
2022-08-28T12:31:04.775Z,25.47
2022-08-28T12:33:40.345Z,25.99
2022-08-28T12:36:14.495Z,26.59
2022-08-28T12:38:48.276Z,27.57
2022-08-28T12:41:20.980Z,27.65
2022-08-28T12:43:52.447Z,27.46
2022-08-28T12:46:27.144Z,27.24
2022-08-28T12:48:59.645Z,28.48
2022-08-28T12:51:32.657Z,30.05
2022-08-28T12:54:05.784Z,30.62
2022-08-28T12:56:36.513Z,29.87
2022-08-28T12:59:42.140Z,29.40
2022-08-28T13:02:26.943Z,30.51
2022-08-28T13:05:07.036Z,30.80
2022-08-28T13:07:47.142Z,29.30
2022-08-28T13:10:25.216Z,29.91
2022-08-28T13:13:06.282Z,30.51
2022-08-28T13:16:09.250Z,30.61
2022-08-28T13:18:45.018Z,30.72
2022-08-28T13:21:33.213Z,30.96
2022-08-28T13:24:35.140Z,31.12
2022-08-28T13:27:13.728Z,30.71
2022-08-28T13:30:06.917Z,29.98
2022-08-28T13:32:37.605Z,30.07
2022-08-28T13:35:22.302Z,30.18
2022-08-28T13:37:51.338Z,30.25
2022-08-28T13:40:55.807Z,30.11
2022-08-28T13:43:11.732Z,30.52
2022-08-28T13:45:42.889Z,30.66
2022-08-28T13:48:13.855Z,31.07
2022-08-28T13:50:43.024Z,31.12
2022-08-28T13:53:14.070Z,31.06
2022-08-28T13:55:40.672Z,31.16
2022-08-28T13:58:07.500Z,29.39
2022-08-28T14:00:40.240Z,30.20
2022-08-28T14:03:25.496Z,30.27
2022-08-28T14:05:51.975Z,30.44
2022-08-28T14:08:18.398Z,30.51
2022-08-28T14:10:44.884Z,30.76
2022-08-28T14:13:11.350Z,30.31
2022-08-28T14:15:38.202Z,29.77
2022-08-28T14:18:05.347Z,29.53
2022-08-28T14:20:32.333Z,30.07
2022-08-28T14:22:58.888Z,30.46
2022-08-28T14:25:25.755Z,29.65
2022-08-28T14:27:52.287Z,29.69
2022-08-28T14:30:19.684Z,30.55
2022-08-28T14:32:46.213Z,30.65
2022-08-28T14:35:12.828Z,31.29
2022-08-28T14:37:39.384Z,31.79
2022-08-28T14:40:06.961Z,32.15
2022-08-28T14:42:33.529Z,31.27
2022-08-28T14:45:00.173Z,31.07
2022-08-28T14:47:26.615Z,31.33
2022-08-28T14:49:53.167Z,31.14
2022-08-28T14:52:19.681Z,30.34
2022-08-28T14:54:46.402Z,30.66
2022-08-28T14:57:13.565Z,30.25
2022-08-28T14:59:40.073Z,30.72
2022-08-28T15:02:06.622Z,30.80
2022-08-28T15:04:37.898Z,30.48
2022-08-28T15:07:08.169Z,30.75
2022-08-28T15:09:38.110Z,29.87
2022-08-28T15:12:05.041Z,30.34
2022-08-28T15:14:31.619Z,29.91
2022-08-28T15:16:58.466Z,29.87
2022-08-28T15:19:25.299Z,30.32
2022-08-28T15:21:55.123Z,30.48
2022-08-28T15:24:25.831Z,30.32
2022-08-28T15:26:52.648Z,30.05
2022-08-28T15:29:19.506Z,30.38
2022-08-28T15:31:49.075Z,30.79
2022-08-28T15:34:21.002Z,30.25
2022-08-28T15:36:55.564Z,29.65
2022-08-28T15:39:45.257Z,29.14
2022-08-28T15:42:12.168Z,29.45
2022-08-28T15:44:38.925Z,29.28
2022-08-28T15:47:06.421Z,29.76
2022-08-28T15:49:43.443Z,29.74
2022-08-28T15:52:14.329Z,29.20
2022-08-28T15:54:41.263Z,29.36
2022-08-28T15:57:08.069Z,29.66
2022-08-28T15:59:47.867Z,29.87
2022-08-28T16:02:21.420Z,30.45
2022-08-28T16:04:48.915Z,30.41
2022-08-28T16:07:16.368Z,30.45
2022-08-28T16:09:42.830Z,30.42
2022-08-28T16:12:09.332Z,29.70
2022-08-28T16:14:36.187Z,29.83
2022-08-28T16:17:05.857Z,29.43
2022-08-28T16:19:39.678Z,29.33
2022-08-28T16:22:06.259Z,28.00
2022-08-28T16:24:32.693Z,28.54
2022-08-28T16:26:59.157Z,29.26
2022-08-28T16:29:26.288Z,29.29
2022-08-28T16:31:53.103Z,29.20
2022-08-28T16:34:20.313Z,29.42
2022-08-28T16:36:50.102Z,29.51
2022-08-28T16:39:16.824Z,29.57
2022-08-28T16:41:49.546Z,29.39
2022-08-28T16:44:25.997Z,29.11
2022-08-28T16:46:53.883Z,29.02
2022-08-28T16:49:21.337Z,29.26
2022-08-28T16:51:47.902Z,29.26
2022-08-28T16:54:16.236Z,29.09
2022-08-28T16:56:42.749Z,28.91
2022-08-28T16:59:10.437Z,28.72
2022-08-28T17:01:38.067Z,28.54
2022-08-28T17:04:07.229Z,28.43
2022-08-28T17:06:33.815Z,28.44
2022-08-28T17:09:00.658Z,28.06
2022-08-28T17:11:27.846Z,27.52
2022-08-28T17:13:55.429Z,27.37
2022-08-28T17:16:23.716Z,27.25
2022-08-28T17:18:52.551Z,27.23
2022-08-28T17:21:38.649Z,27.28
2022-08-28T17:24:05.428Z,27.24
2022-08-28T17:26:32.012Z,26.98
2022-08-28T17:28:58.511Z,26.83
2022-08-28T17:31:25.061Z,26.77
2022-08-28T17:33:51.550Z,26.59
2022-08-28T17:36:30.733Z,26.37
2022-08-28T17:39:01.618Z,26.49
2022-08-28T17:41:28.233Z,26.32
2022-08-28T17:43:54.654Z,25.94
2022-08-28T17:46:21.108Z,25.85
2022-08-28T17:48:49.452Z,25.46
2022-08-28T17:51:33.119Z,25.40
2022-08-28T17:57:36.072Z,25.22
2022-08-28T18:00:06.405Z,25.08
2022-08-28T18:02:32.953Z,24.93
2022-08-28T18:05:01.740Z,24.49
2022-08-28T18:07:29.100Z,24.40
2022-08-28T18:09:55.607Z,24.14
2022-08-28T18:12:22.191Z,24.03
2022-08-28T18:14:48.784Z,23.74
2022-08-28T18:17:16.154Z,23.69
2022-08-28T18:19:43.198Z,23.35
2022-08-28T18:22:11.822Z,23.22
2022-08-28T18:24:39.596Z,23.18
2022-08-28T18:27:08.089Z,23.05
2022-08-28T18:29:36.678Z,22.99
2022-08-28T18:32:06.232Z,22.91
2022-08-28T18:34:33.327Z,22.83
2022-08-28T18:37:00.802Z,22.90
2022-08-28T18:39:29.758Z,22.85
2022-08-28T18:41:58.085Z,22.78
2022-08-28T18:44:25.083Z,22.63
2022-08-28T18:46:51.688Z,22.39
2022-08-28T18:49:18.174Z,22.40
2022-08-28T18:51:44.730Z,22.37
2022-08-28T18:54:14.169Z,22.18
2022-08-28T18:56:43.590Z,22.37
2022-08-28T18:59:10.194Z,22.27
2022-08-28T19:01:36.848Z,22.40
2022-08-28T19:04:04.143Z,22.22
2022-08-28T19:06:30.999Z,22.18
2022-08-28T19:08:57.599Z,22.00
2022-08-28T19:11:24.129Z,21.85
2022-08-28T19:13:50.610Z,21.71
2022-08-28T19:16:19.325Z,21.83
2022-08-28T19:18:46.358Z,21.82
2022-08-28T19:21:19.513Z,21.81
2022-08-28T19:23:55.749Z,21.65
2022-08-28T19:26:24.799Z,21.55
2022-08-28T19:28:51.638Z,21.58
2022-08-28T19:31:18.384Z,21.35
2022-08-28T19:33:46.588Z,21.45
2022-08-28T19:36:13.756Z,21.42
2022-08-28T19:38:41.053Z,21.28
2022-08-28T19:41:10.129Z,21.20
2022-08-28T19:43:43.123Z,21.32
2022-08-28T19:46:18.634Z,21.21
2022-08-28T19:48:47.884Z,21.24
2022-08-28T19:51:17.480Z,21.19
2022-08-28T19:53:54.633Z,20.99
2022-08-28T19:56:26.888Z,20.90
2022-08-28T19:58:54.680Z,21.00
2022-08-28T20:01:21.428Z,20.76
2022-08-28T20:03:48.075Z,20.62
2022-08-28T20:06:14.952Z,20.55
2022-08-28T20:08:41.816Z,20.65
2022-08-28T20:11:09.645Z,20.52
2022-08-28T20:13:36.148Z,20.48
2022-08-28T20:16:04.478Z,20.66
2022-08-28T20:18:31.177Z,20.58
2022-08-28T20:20:57.904Z,20.31
2022-08-28T20:23:24.584Z,20.36
2022-08-28T20:25:51.694Z,20.21
2022-08-28T20:28:18.946Z,20.07
2022-08-28T20:30:46.804Z,20.05
2022-08-28T20:33:13.898Z,19.95
2022-08-28T20:35:40.535Z,20.03
2022-08-28T20:38:07.182Z,20.11
2022-08-28T20:40:33.862Z,20.01
2022-08-28T20:43:00.681Z,20.07
2022-08-28T20:45:28.115Z,20.04
2022-08-28T20:47:54.883Z,19.78
2022-08-28T20:50:21.420Z,19.85
2022-08-28T20:52:48.010Z,19.83
2022-08-28T20:55:14.804Z,19.83
2022-08-28T20:57:41.657Z,19.83
2022-08-28T21:00:09.732Z,19.67
2022-08-28T21:02:36.599Z,19.78
2022-08-28T21:05:04.515Z,19.67
2022-08-28T21:07:33.384Z,19.60
2022-08-28T21:10:05.029Z,19.56
2022-08-28T21:12:35.429Z,19.56
2022-08-28T21:15:02.359Z,19.67
2022-08-28T21:17:30.659Z,19.50
2022-08-28T21:20:10.646Z,19.59
2022-08-28T21:22:37.662Z,19.55
2022-08-28T21:25:07.195Z,19.46
2022-08-28T21:27:34.143Z,19.26
2022-08-28T21:30:01.236Z,19.19
2022-08-28T21:32:29.308Z,19.32
2022-08-28T21:34:56.146Z,19.23
2022-08-28T21:37:22.989Z,19.06
2022-08-28T21:39:49.634Z,19.04
2022-08-28T21:42:16.280Z,19.11
2022-08-28T21:44:45.523Z,19.14
2022-08-28T21:47:18.236Z,19.01
2022-08-28T21:49:48.222Z,18.98
2022-08-28T21:52:14.708Z,18.89
2022-08-28T21:54:41.144Z,18.77
2022-08-28T21:57:07.653Z,18.77
2022-08-28T21:59:37.872Z,18.57
2022-08-28T22:02:04.993Z,18.64
2022-08-28T22:04:31.566Z,18.74
2022-08-28T22:06:58.558Z,18.73
2022-08-28T22:09:25.021Z,18.64
2022-08-28T22:11:51.526Z,18.54
2022-08-28T22:14:18.428Z,18.56
2022-08-28T22:16:45.063Z,18.54
2022-08-28T22:19:11.702Z,18.46
2022-08-28T22:21:56.555Z,18.48
2022-08-28T22:24:23.614Z,18.30
2022-08-28T22:26:50.154Z,18.39
2022-08-28T22:29:23.805Z,18.30
2022-08-28T22:31:50.362Z,18.20
2022-08-28T22:34:16.911Z,18.26
2022-08-28T22:36:43.541Z,18.40
2022-08-28T22:39:10.198Z,18.33
2022-08-28T22:41:37.414Z,18.33
2022-08-28T22:44:04.389Z,18.22
2022-08-28T22:46:31.094Z,18.05
2022-08-28T22:48:57.799Z,18.01
2022-08-28T22:51:24.217Z,18.04
2022-08-28T22:53:50.832Z,17.96
2022-08-28T22:56:17.862Z,17.88
2022-08-28T22:58:44.383Z,17.67
2022-08-28T23:01:16.087Z,17.69
2022-08-28T23:03:42.742Z,17.57
2022-08-28T23:06:09.392Z,17.50
2022-08-28T23:08:36.058Z,17.43
2022-08-28T23:11:02.740Z,17.53
2022-08-28T23:13:30.604Z,17.65
2022-08-28T23:15:57.490Z,17.71
2022-08-28T23:18:24.981Z,17.67
2022-08-28T23:20:52.372Z,17.54
2022-08-28T23:23:21.452Z,17.51
2022-08-28T23:25:50.103Z,17.46
2022-08-28T23:28:17.748Z,17.27
2022-08-28T23:30:48.564Z,17.16
2022-08-28T23:33:23.785Z,17.27
2022-08-28T23:35:52.190Z,17.27
2022-08-28T23:38:19.615Z,17.23
2022-08-28T23:40:46.268Z,17.40
2022-08-28T23:43:12.742Z,17.33
2022-08-28T23:45:41.550Z,17.33
2022-08-28T23:48:08.812Z,17.33
2022-08-28T23:50:35.551Z,17.33
2022-08-28T23:53:04.085Z,17.50
2022-08-28T23:55:30.998Z,17.61
